sensor_id;sensor_type;location;lat;lon;timestamp;temperature;humidity
64685;DHT22;51109;47.414;18.954;2024-02-16T00:00:45;8.00;99.90
64685;DHT22;51109;47.414;18.954;2024-02-16T00:03:12;8.00;99.90
64685;DHT22;51109;47.414;18.954;2024-02-16T00:05:38;8.00;99.90
64685;DHT22;51109;47.414;18.954;2024-02-16T00:08:04;9.80;99.90
64685;DHT22;51109;47.414;18.954;2024-02-16T00:10:30;8.00;99.90
64685;DHT22;51109;47.414;18.954;2024-02-16T00:12:56;8.00;99.90
64685;DHT22;51109;47.414;18.954;2024-02-16T00:15:22;8.00;99.90
64685;DHT22;51109;47.414;18.954;2024-02-16T00:17:49;8.00;99.90
64685;DHT22;51109;47.414;18.954;2024-02-16T00:20:15;7.90;99.90
64685;DHT22;51109;47.414;18.954;2024-02-16T00:22:41;8.00;99.90
64685;DHT22;51109;47.414;18.954;2024-02-16T00:25:07;7.90;99.90
64685;DHT22;51109;47.414;18.954;2024-02-16T00:27:33;8.00;99.90
64685;DHT22;51109;47.414;18.954;2024-02-16T00:29:58;7.90;99.90
64685;DHT22;51109;47.414;18.954;2024-02-16T00:32:24;7.90;99.90
64685;DHT22;51109;47.414;18.954;2024-02-16T00:34:55;7.90;99.90
64685;DHT22;51109;47.414;18.954;2024-02-16T00:37:21;8.00;99.90
64685;DHT22;51109;47.414;18.954;2024-02-16T00:39:46;7.90;99.90
64685;DHT22;51109;47.414;18.954;2024-02-16T00:42:12;7.90;99.90
64685;DHT22;51109;47.414;18.954;2024-02-16T00:44:38;7.90;99.90
64685;DHT22;51109;47.414;18.954;2024-02-16T00:47:04;7.90;99.90
64685;DHT22;51109;47.414;18.954;2024-02-16T00:49:35;7.90;99.90
64685;DHT22;51109;47.414;18.954;2024-02-16T00:52:01;7.90;99.90
64685;DHT22;51109;47.414;18.954;2024-02-16T00:54:31;7.80;99.90
64685;DHT22;51109;47.414;18.954;2024-02-16T00:56:57;7.90;99.90
64685;DHT22;51109;47.414;18.954;2024-02-16T00:59:28;7.90;99.90
64685;DHT22;51109;47.414;18.954;2024-02-16T01:01:54;7.90;99.90
64685;DHT22;51109;47.414;18.954;2024-02-16T01:04:20;7.90;99.90
64685;DHT22;51109;47.414;18.954;2024-02-16T01:06:45;7.90;99.90
64685;DHT22;51109;47.414;18.954;2024-02-16T01:09:12;7.80;99.90
64685;DHT22;51109;47.414;18.954;2024-02-16T01:11:41;7.90;99.90
64685;DHT22;51109;47.414;18.954;2024-02-16T01:14:07;7.80;99.90
64685;DHT22;51109;47.414;18.954;2024-02-16T01:16:33;7.80;99.90
64685;DHT22;51109;47.414;18.954;2024-02-16T01:18:59;7.70;99.90
64685;DHT22;51109;47.414;18.954;2024-02-16T01:21:24;7.70;99.90
64685;DHT22;51109;47.414;18.954;2024-02-16T01:23:50;7.70;99.90
64685;DHT22;51109;47.414;18.954;2024-02-16T01:26:16;7.70;99.90
64685;DHT22;51109;47.414;18.954;2024-02-16T01:28:42;7.60;99.90
64685;DHT22;51109;47.414;18.954;2024-02-16T01:31:09;7.60;99.90
64685;DHT22;51109;47.414;18.954;2024-02-16T01:33:36;7.50;99.90
64685;DHT22;51109;47.414;18.954;2024-02-16T01:36:03;7.40;99.90
64685;DHT22;51109;47.414;18.954;2024-02-16T01:38:29;7.40;99.90
64685;DHT22;51109;47.414;18.954;2024-02-16T01:40:54;7.40;99.90
64685;DHT22;51109;47.414;18.954;2024-02-16T01:43:21;7.40;99.90
64685;DHT22;51109;47.414;18.954;2024-02-16T01:45:47;7.30;99.90
64685;DHT22;51109;47.414;18.954;2024-02-16T01:48:16;7.20;99.90
64685;DHT22;51109;47.414;18.954;2024-02-16T01:50:43;7.20;99.90
64685;DHT22;51109;47.414;18.954;2024-02-16T01:53:11;7.10;99.90
64685;DHT22;51109;47.414;18.954;2024-02-16T01:55:38;7.10;99.90
64685;DHT22;51109;47.414;18.954;2024-02-16T01:58:04;7.10;99.90
64685;DHT22;51109;47.414;18.954;2024-02-16T02:00:30;7.00;99.90
64685;DHT22;51109;47.414;18.954;2024-02-16T02:02:56;9.10;99.90
64685;DHT22;51109;47.414;18.954;2024-02-16T02:05:23;6.90;99.90
64685;DHT22;51109;47.414;18.954;2024-02-16T02:07:49;5.10;99.90
64685;DHT22;51109;47.414;18.954;2024-02-16T02:10:15;7.20;99.90
64685;DHT22;51109;47.414;18.954;2024-02-16T02:12:42;9.00;99.90
64685;DHT22;51109;47.414;18.954;2024-02-16T02:15:08;6.80;99.90
64685;DHT22;51109;47.414;18.954;2024-02-16T02:17:35;6.80;99.90
64685;DHT22;51109;47.414;18.954;2024-02-16T02:20:02;6.80;99.90
64685;DHT22;51109;47.414;18.954;2024-02-16T02:22:29;6.70;99.90
64685;DHT22;51109;47.414;18.954;2024-02-16T02:24:55;6.70;99.90
64685;DHT22;51109;47.414;18.954;2024-02-16T02:27:21;6.60;99.90
64685;DHT22;51109;47.414;18.954;2024-02-16T02:29:47;6.60;99.90
64685;DHT22;51109;47.414;18.954;2024-02-16T02:32:13;6.50;99.90
64685;DHT22;51109;47.414;18.954;2024-02-16T02:34:39;6.50;99.90
64685;DHT22;51109;47.414;18.954;2024-02-16T02:37:06;6.50;99.90
64685;DHT22;51109;47.414;18.954;2024-02-16T02:39:32;6.50;99.90
64685;DHT22;51109;47.414;18.954;2024-02-16T02:41:58;6.50;99.90
64685;DHT22;51109;47.414;18.954;2024-02-16T02:44:25;6.50;99.90
64685;DHT22;51109;47.414;18.954;2024-02-16T02:46:51;6.50;99.90
64685;DHT22;51109;47.414;18.954;2024-02-16T02:49:21;6.50;99.90
64685;DHT22;51109;47.414;18.954;2024-02-16T02:51:46;6.40;99.90
64685;DHT22;51109;47.414;18.954;2024-02-16T02:54:12;6.40;99.90
64685;DHT22;51109;47.414;18.954;2024-02-16T02:56:38;6.40;99.90
64685;DHT22;51109;47.414;18.954;2024-02-16T02:59:04;6.40;99.90
64685;DHT22;51109;47.414;18.954;2024-02-16T03:01:31;6.40;99.90
64685;DHT22;51109;47.414;18.954;2024-02-16T03:03:57;6.40;99.90
64685;DHT22;51109;47.414;18.954;2024-02-16T03:06:25;6.30;99.90
64685;DHT22;51109;47.414;18.954;2024-02-16T03:08:51;6.30;99.90
64685;DHT22;51109;47.414;18.954;2024-02-16T03:11:17;6.30;99.90
64685;DHT22;51109;47.414;18.954;2024-02-16T03:13:42;6.20;99.90
64685;DHT22;51109;47.414;18.954;2024-02-16T03:16:08;6.20;99.90
64685;DHT22;51109;47.414;18.954;2024-02-16T03:18:34;6.10;99.90
64685;DHT22;51109;47.414;18.954;2024-02-16T03:21:00;6.20;99.90
64685;DHT22;51109;47.414;18.954;2024-02-16T03:23:26;6.10;99.90
64685;DHT22;51109;47.414;18.954;2024-02-16T03:25:52;6.10;99.90
64685;DHT22;51109;47.414;18.954;2024-02-16T03:28:18;6.10;99.90
64685;DHT22;51109;47.414;18.954;2024-02-16T03:30:44;6.10;99.90
64685;DHT22;51109;47.414;18.954;2024-02-16T03:33:10;6.10;99.90
64685;DHT22;51109;47.414;18.954;2024-02-16T03:35:36;6.00;99.90
64685;DHT22;51109;47.414;18.954;2024-02-16T03:38:03;6.00;99.90
64685;DHT22;51109;47.414;18.954;2024-02-16T03:40:29;6.00;99.90
64685;DHT22;51109;47.414;18.954;2024-02-16T03:42:55;6.00;99.90
64685;DHT22;51109;47.414;18.954;2024-02-16T03:45:21;6.00;99.90
64685;DHT22;51109;47.414;18.954;2024-02-16T03:47:47;5.90;99.90
64685;DHT22;51109;47.414;18.954;2024-02-16T03:50:20;5.90;99.90
64685;DHT22;51109;47.414;18.954;2024-02-16T03:52:46;5.80;99.90
64685;DHT22;51109;47.414;18.954;2024-02-16T03:55:12;5.90;99.90
64685;DHT22;51109;47.414;18.954;2024-02-16T03:57:39;5.80;99.90
64685;DHT22;51109;47.414;18.954;2024-02-16T04:00:05;5.90;99.90
64685;DHT22;51109;47.414;18.954;2024-02-16T04:02:32;5.90;99.90
64685;DHT22;51109;47.414;18.954;2024-02-16T04:04:57;5.80;99.90
64685;DHT22;51109;47.414;18.954;2024-02-16T04:07:23;5.80;99.90
64685;DHT22;51109;47.414;18.954;2024-02-16T04:09:49;5.80;99.90
64685;DHT22;51109;47.414;18.954;2024-02-16T04:12:15;5.80;99.90
64685;DHT22;51109;47.414;18.954;2024-02-16T04:14:41;5.80;99.90
64685;DHT22;51109;47.414;18.954;2024-02-16T04:17:07;5.80;99.90
64685;DHT22;51109;47.414;18.954;2024-02-16T04:19:33;5.80;99.90
64685;DHT22;51109;47.414;18.954;2024-02-16T04:21:59;5.80;99.90
64685;DHT22;51109;47.414;18.954;2024-02-16T04:24:25;5.70;99.90
64685;DHT22;51109;47.414;18.954;2024-02-16T04:26:50;5.70;99.90
64685;DHT22;51109;47.414;18.954;2024-02-16T04:29:16;5.70;99.90
64685;DHT22;51109;47.414;18.954;2024-02-16T04:31:42;5.70;99.90
64685;DHT22;51109;47.414;18.954;2024-02-16T04:34:08;5.70;99.90
64685;DHT22;51109;47.414;18.954;2024-02-16T04:36:37;5.70;99.90
64685;DHT22;51109;47.414;18.954;2024-02-16T04:39:03;5.70;99.90
64685;DHT22;51109;47.414;18.954;2024-02-16T04:41:29;5.60;99.90
64685;DHT22;51109;47.414;18.954;2024-02-16T04:43:55;5.60;99.90
64685;DHT22;51109;47.414;18.954;2024-02-16T04:46:22;5.60;99.90
64685;DHT22;51109;47.414;18.954;2024-02-16T04:48:48;5.60;99.90
64685;DHT22;51109;47.414;18.954;2024-02-16T04:51:14;5.50;99.90
64685;DHT22;51109;47.414;18.954;2024-02-16T04:53:39;5.50;99.90
64685;DHT22;51109;47.414;18.954;2024-02-16T04:56:05;5.50;99.90
64685;DHT22;51109;47.414;18.954;2024-02-16T04:58:31;5.50;99.90
64685;DHT22;51109;47.414;18.954;2024-02-16T05:00:57;5.40;99.90
64685;DHT22;51109;47.414;18.954;2024-02-16T05:03:23;5.40;99.90
64685;DHT22;51109;47.414;18.954;2024-02-16T05:05:49;5.40;99.90
64685;DHT22;51109;47.414;18.954;2024-02-16T05:08:15;5.40;99.90
64685;DHT22;51109;47.414;18.954;2024-02-16T05:10:41;5.40;99.90
64685;DHT22;51109;47.414;18.954;2024-02-16T05:13:07;5.40;99.90
64685;DHT22;51109;47.414;18.954;2024-02-16T05:15:33;5.40;99.90
64685;DHT22;51109;47.414;18.954;2024-02-16T05:17:59;5.30;99.90
64685;DHT22;51109;47.414;18.954;2024-02-16T05:20:24;5.30;99.90
64685;DHT22;51109;47.414;18.954;2024-02-16T05:22:51;5.30;99.90
64685;DHT22;51109;47.414;18.954;2024-02-16T05:25:18;5.30;99.90
64685;DHT22;51109;47.414;18.954;2024-02-16T05:27:44;5.30;99.90
64685;DHT22;51109;47.414;18.954;2024-02-16T05:30:12;5.30;99.90
64685;DHT22;51109;47.414;18.954;2024-02-16T05:32:40;5.30;99.90
64685;DHT22;51109;47.414;18.954;2024-02-16T05:35:07;5.30;99.90
64685;DHT22;51109;47.414;18.954;2024-02-16T05:37:41;5.30;99.90
64685;DHT22;51109;47.414;18.954;2024-02-16T05:40:10;5.30;99.90
64685;DHT22;51109;47.414;18.954;2024-02-16T05:42:51;5.30;99.90
64685;DHT22;51109;47.414;18.954;2024-02-16T05:45:17;5.30;99.90
64685;DHT22;51109;47.414;18.954;2024-02-16T05:47:44;5.20;99.90
64685;DHT22;51109;47.414;18.954;2024-02-16T05:50:14;5.20;99.90
64685;DHT22;51109;47.414;18.954;2024-02-16T05:52:41;5.20;99.90
64685;DHT22;51109;47.414;18.954;2024-02-16T05:55:09;5.20;99.90
64685;DHT22;51109;47.414;18.954;2024-02-16T05:57:35;5.20;99.90
64685;DHT22;51109;47.414;18.954;2024-02-16T06:00:05;5.20;99.90
64685;DHT22;51109;47.414;18.954;2024-02-16T06:02:32;5.20;99.90
64685;DHT22;51109;47.414;18.954;2024-02-16T06:04:59;5.20;99.90
64685;DHT22;51109;47.414;18.954;2024-02-16T06:07:25;5.20;99.90
64685;DHT22;51109;47.414;18.954;2024-02-16T06:09:51;5.30;99.90
64685;DHT22;51109;47.414;18.954;2024-02-16T06:12:17;5.30;99.90
64685;DHT22;51109;47.414;18.954;2024-02-16T06:14:43;5.30;99.90
64685;DHT22;51109;47.414;18.954;2024-02-16T06:17:09;5.30;99.90
64685;DHT22;51109;47.414;18.954;2024-02-16T06:19:38;5.30;99.90
64685;DHT22;51109;47.414;18.954;2024-02-16T06:22:05;5.40;99.90
64685;DHT22;51109;47.414;18.954;2024-02-16T06:24:37;5.40;99.90
64685;DHT22;51109;47.414;18.954;2024-02-16T06:27:03;5.50;99.90
64685;DHT22;51109;47.414;18.954;2024-02-16T06:29:29;5.50;99.90
64685;DHT22;51109;47.414;18.954;2024-02-16T06:31:56;5.60;99.90
64685;DHT22;51109;47.414;18.954;2024-02-16T06:34:22;5.70;99.90
64685;DHT22;51109;47.414;18.954;2024-02-16T06:36:48;5.70;99.90
64685;DHT22;51109;47.414;18.954;2024-02-16T06:39:15;5.70;99.90
64685;DHT22;51109;47.414;18.954;2024-02-16T06:41:46;5.80;99.90
64685;DHT22;51109;47.414;18.954;2024-02-16T06:44:12;5.90;99.90
64685;DHT22;51109;47.414;18.954;2024-02-16T06:46:38;5.90;99.90
64685;DHT22;51109;47.414;18.954;2024-02-16T06:49:04;6.00;99.90
64685;DHT22;51109;47.414;18.954;2024-02-16T06:51:30;6.10;99.90
64685;DHT22;51109;47.414;18.954;2024-02-16T06:53:56;6.20;99.90
64685;DHT22;51109;47.414;18.954;2024-02-16T06:56:25;6.10;99.90
64685;DHT22;51109;47.414;18.954;2024-02-16T06:58:51;6.30;99.90
64685;DHT22;51109;47.414;18.954;2024-02-16T07:01:20;7.00;99.90
64685;DHT22;51109;47.414;18.954;2024-02-16T07:03:46;6.50;99.90
64685;DHT22;51109;47.414;18.954;2024-02-16T07:06:12;6.60;99.90
64685;DHT22;51109;47.414;18.954;2024-02-16T07:08:42;6.70;99.90
64685;DHT22;51109;47.414;18.954;2024-02-16T07:11:09;6.70;99.90
64685;DHT22;51109;47.414;18.954;2024-02-16T07:13:39;6.80;99.90
64685;DHT22;51109;47.414;18.954;2024-02-16T07:16:05;6.90;99.90
64685;DHT22;51109;47.414;18.954;2024-02-16T07:18:34;7.00;99.90
64685;DHT22;51109;47.414;18.954;2024-02-16T07:21:00;7.10;99.90
64685;DHT22;51109;47.414;18.954;2024-02-16T07:23:26;7.10;99.90
64685;DHT22;51109;47.414;18.954;2024-02-16T07:25:52;7.20;99.90
64685;DHT22;51109;47.414;18.954;2024-02-16T07:28:25;7.20;99.90
64685;DHT22;51109;47.414;18.954;2024-02-16T07:30:51;7.20;99.90
64685;DHT22;51109;47.414;18.954;2024-02-16T07:33:18;7.30;99.90
64685;DHT22;51109;47.414;18.954;2024-02-16T07:35:44;7.40;99.90
64685;DHT22;51109;47.414;18.954;2024-02-16T07:38:11;7.50;99.90
64685;DHT22;51109;47.414;18.954;2024-02-16T07:40:37;7.60;99.90
64685;DHT22;51109;47.414;18.954;2024-02-16T07:43:03;7.60;99.90
64685;DHT22;51109;47.414;18.954;2024-02-16T07:45:29;7.70;99.90
64685;DHT22;51109;47.414;18.954;2024-02-16T07:47:56;7.70;99.90
64685;DHT22;51109;47.414;18.954;2024-02-16T07:50:22;7.80;99.90
64685;DHT22;51109;47.414;18.954;2024-02-16T07:52:49;7.90;99.90
64685;DHT22;51109;47.414;18.954;2024-02-16T07:55:15;8.00;99.90
64685;DHT22;51109;47.414;18.954;2024-02-16T07:57:44;7.90;99.90
64685;DHT22;51109;47.414;18.954;2024-02-16T08:00:10;8.00;99.90
64685;DHT22;51109;47.414;18.954;2024-02-16T08:02:36;8.00;99.90
64685;DHT22;51109;47.414;18.954;2024-02-16T08:05:02;8.10;99.90
64685;DHT22;51109;47.414;18.954;2024-02-16T08:07:28;8.10;99.90
64685;DHT22;51109;47.414;18.954;2024-02-16T08:09:55;8.20;99.90
64685;DHT22;51109;47.414;18.954;2024-02-16T08:12:20;8.20;99.90
64685;DHT22;51109;47.414;18.954;2024-02-16T08:14:46;8.30;99.90
64685;DHT22;51109;47.414;18.954;2024-02-16T08:17:12;8.20;99.90
64685;DHT22;51109;47.414;18.954;2024-02-16T08:19:38;8.30;99.90
64685;DHT22;51109;47.414;18.954;2024-02-16T08:22:05;8.20;99.90
64685;DHT22;51109;47.414;18.954;2024-02-16T08:24:35;8.20;99.90
64685;DHT22;51109;47.414;18.954;2024-02-16T08:27:01;8.30;99.90
64685;DHT22;51109;47.414;18.954;2024-02-16T08:29:27;8.50;99.90
64685;DHT22;51109;47.414;18.954;2024-02-16T08:31:54;8.60;99.90
64685;DHT22;51109;47.414;18.954;2024-02-16T08:34:20;8.80;99.90
64685;DHT22;51109;47.414;18.954;2024-02-16T08:36:47;8.70;99.90
64685;DHT22;51109;47.414;18.954;2024-02-16T08:39:14;8.80;99.90
64685;DHT22;51109;47.414;18.954;2024-02-16T08:41:40;8.80;99.90
64685;DHT22;51109;47.414;18.954;2024-02-16T08:44:07;9.10;99.90
64685;DHT22;51109;47.414;18.954;2024-02-16T08:46:36;9.00;99.90
64685;DHT22;51109;47.414;18.954;2024-02-16T08:49:02;9.10;99.90
64685;DHT22;51109;47.414;18.954;2024-02-16T08:51:28;9.30;99.90
64685;DHT22;51109;47.414;18.954;2024-02-16T08:53:54;9.40;99.90
64685;DHT22;51109;47.414;18.954;2024-02-16T08:56:20;9.50;99.90
64685;DHT22;51109;47.414;18.954;2024-02-16T08:58:46;9.50;99.90
64685;DHT22;51109;47.414;18.954;2024-02-16T09:01:12;9.60;99.90
64685;DHT22;51109;47.414;18.954;2024-02-16T09:03:38;9.60;99.90
64685;DHT22;51109;47.414;18.954;2024-02-16T09:06:04;9.70;99.90
64685;DHT22;51109;47.414;18.954;2024-02-16T09:08:30;9.80;99.90
64685;DHT22;51109;47.414;18.954;2024-02-16T09:11:04;9.90;99.90
64685;DHT22;51109;47.414;18.954;2024-02-16T09:13:39;9.90;99.90
64685;DHT22;51109;47.414;18.954;2024-02-16T09:16:05;9.90;99.90
64685;DHT22;51109;47.414;18.954;2024-02-16T09:18:30;9.90;99.90
64685;DHT22;51109;47.414;18.954;2024-02-16T09:20:56;10.00;99.90
64685;DHT22;51109;47.414;18.954;2024-02-16T09:23:22;10.30;99.90
64685;DHT22;51109;47.414;18.954;2024-02-16T09:25:48;10.30;99.90
64685;DHT22;51109;47.414;18.954;2024-02-16T09:28:14;10.30;99.90
64685;DHT22;51109;47.414;18.954;2024-02-16T09:30:40;10.20;99.90
64685;DHT22;51109;47.414;18.954;2024-02-16T09:33:06;10.30;99.90
64685;DHT22;51109;47.414;18.954;2024-02-16T09:35:33;10.60;99.90
64685;DHT22;51109;47.414;18.954;2024-02-16T09:37:59;10.70;99.90
64685;DHT22;51109;47.414;18.954;2024-02-16T09:40:25;11.00;99.90
64685;DHT22;51109;47.414;18.954;2024-02-16T09:42:52;11.10;99.90
64685;DHT22;51109;47.414;18.954;2024-02-16T09:45:18;11.10;99.90
64685;DHT22;51109;47.414;18.954;2024-02-16T09:47:45;11.20;99.90
64685;DHT22;51109;47.414;18.954;2024-02-16T09:50:15;11.20;99.90
64685;DHT22;51109;47.414;18.954;2024-02-16T09:52:41;11.40;99.90
64685;DHT22;51109;47.414;18.954;2024-02-16T09:55:12;11.30;99.90
64685;DHT22;51109;47.414;18.954;2024-02-16T09:57:39;11.60;99.90
64685;DHT22;51109;47.414;18.954;2024-02-16T10:00:05;11.30;99.90
64685;DHT22;51109;47.414;18.954;2024-02-16T10:02:45;11.50;99.90
64685;DHT22;51109;47.414;18.954;2024-02-16T10:07:41;11.60;99.90
64685;DHT22;51109;47.414;18.954;2024-02-16T10:10:19;11.70;99.90
64685;DHT22;51109;47.414;18.954;2024-02-16T10:12:46;11.70;99.90
64685;DHT22;51109;47.414;18.954;2024-02-16T10:15:21;11.90;99.90
64685;DHT22;51109;47.414;18.954;2024-02-16T10:18:01;11.70;99.90
64685;DHT22;51109;47.414;18.954;2024-02-16T10:20:29;11.80;99.90
64685;DHT22;51109;47.414;18.954;2024-02-16T10:23:09;11.90;99.90
64685;DHT22;51109;47.414;18.954;2024-02-16T10:25:36;11.90;99.90
64685;DHT22;51109;47.414;18.954;2024-02-16T10:28:08;12.10;99.90
64685;DHT22;51109;47.414;18.954;2024-02-16T10:30:38;12.30;99.90
64685;DHT22;51109;47.414;18.954;2024-02-16T10:33:07;12.30;99.90
64685;DHT22;51109;47.414;18.954;2024-02-16T10:35:35;12.10;99.90
64685;DHT22;51109;47.414;18.954;2024-02-16T10:38:02;12.10;99.90
64685;DHT22;51109;47.414;18.954;2024-02-16T10:40:37;12.20;99.90
64685;DHT22;51109;47.414;18.954;2024-02-16T10:43:04;12.30;99.90
64685;DHT22;51109;47.414;18.954;2024-02-16T10:45:35;12.40;99.90
64685;DHT22;51109;47.414;18.954;2024-02-16T10:48:05;12.30;99.90
64685;DHT22;51109;47.414;18.954;2024-02-16T10:50:36;12.20;99.90
64685;DHT22;51109;47.414;18.954;2024-02-16T10:55:40;12.50;99.90
64685;DHT22;51109;47.414;18.954;2024-02-16T10:58:10;12.60;99.90
64685;DHT22;51109;47.414;18.954;2024-02-16T11:00:36;12.50;99.90
64685;DHT22;51109;47.414;18.954;2024-02-16T11:03:04;12.40;99.90
64685;DHT22;51109;47.414;18.954;2024-02-16T11:05:41;12.90;99.90
64685;DHT22;51109;47.414;18.954;2024-02-16T11:08:13;13.00;99.90
64685;DHT22;51109;47.414;18.954;2024-02-16T11:10:39;13.00;99.90
64685;DHT22;51109;47.414;18.954;2024-02-16T11:13:05;12.80;99.90
64685;DHT22;51109;47.414;18.954;2024-02-16T11:15:32;12.80;99.90
64685;DHT22;51109;47.414;18.954;2024-02-16T11:18:03;12.90;99.90
64685;DHT22;51109;47.414;18.954;2024-02-16T11:20:36;12.90;99.90
64685;DHT22;51109;47.414;18.954;2024-02-16T11:23:08;12.90;99.90
64685;DHT22;51109;47.414;18.954;2024-02-16T11:25:36;13.00;99.90
64685;DHT22;51109;47.414;18.954;2024-02-16T11:28:02;12.80;99.90
64685;DHT22;51109;47.414;18.954;2024-02-16T11:30:33;13.00;99.90
64685;DHT22;51109;47.414;18.954;2024-02-16T11:33:00;13.30;99.90
64685;DHT22;51109;47.414;18.954;2024-02-16T11:35:26;13.40;99.90
64685;DHT22;51109;47.414;18.954;2024-02-16T11:37:52;13.30;99.90
64685;DHT22;51109;47.414;18.954;2024-02-16T11:40:17;13.30;99.90
64685;DHT22;51109;47.414;18.954;2024-02-16T11:42:44;13.30;99.90
64685;DHT22;51109;47.414;18.954;2024-02-16T11:45:12;13.20;99.90
64685;DHT22;51109;47.414;18.954;2024-02-16T11:47:38;13.30;99.90
64685;DHT22;51109;47.414;18.954;2024-02-16T11:50:09;13.50;99.90
64685;DHT22;51109;47.414;18.954;2024-02-16T11:52:38;13.50;99.90
64685;DHT22;51109;47.414;18.954;2024-02-16T11:55:08;13.30;99.90
64685;DHT22;51109;47.414;18.954;2024-02-16T11:57:35;13.30;99.90
64685;DHT22;51109;47.414;18.954;2024-02-16T12:00:03;13.30;99.90
64685;DHT22;51109;47.414;18.954;2024-02-16T12:02:40;13.40;99.90
64685;DHT22;51109;47.414;18.954;2024-02-16T12:05:06;13.30;99.90
64685;DHT22;51109;47.414;18.954;2024-02-16T12:07:33;13.10;99.90
64685;DHT22;51109;47.414;18.954;2024-02-16T12:10:03;13.50;99.90
64685;DHT22;51109;47.414;18.954;2024-02-16T12:12:32;13.70;99.90
64685;DHT22;51109;47.414;18.954;2024-02-16T12:14:58;13.60;99.90
64685;DHT22;51109;47.414;18.954;2024-02-16T12:17:24;13.80;99.90
64685;DHT22;51109;47.414;18.954;2024-02-16T12:19:51;13.90;99.90
64685;DHT22;51109;47.414;18.954;2024-02-16T12:22:21;14.00;99.90
64685;DHT22;51109;47.414;18.954;2024-02-16T12:24:47;13.90;99.90
64685;DHT22;51109;47.414;18.954;2024-02-16T12:27:13;13.80;99.90
64685;DHT22;51109;47.414;18.954;2024-02-16T12:29:40;13.80;99.90
64685;DHT22;51109;47.414;18.954;2024-02-16T12:32:06;13.80;99.90
64685;DHT22;51109;47.414;18.954;2024-02-16T12:34:35;14.10;99.90
64685;DHT22;51109;47.414;18.954;2024-02-16T12:37:05;14.00;99.90
64685;DHT22;51109;47.414;18.954;2024-02-16T12:39:33;14.20;99.90
64685;DHT22;51109;47.414;18.954;2024-02-16T12:41:59;14.10;99.90
64685;DHT22;51109;47.414;18.954;2024-02-16T12:44:26;14.10;99.90
64685;DHT22;51109;47.414;18.954;2024-02-16T12:46:51;14.00;99.90
64685;DHT22;51109;47.414;18.954;2024-02-16T12:49:17;14.20;99.90
64685;DHT22;51109;47.414;18.954;2024-02-16T12:51:50;14.20;99.90
64685;DHT22;51109;47.414;18.954;2024-02-16T12:54:17;14.10;99.90
64685;DHT22;51109;47.414;18.954;2024-02-16T12:56:48;13.90;99.90
64685;DHT22;51109;47.414;18.954;2024-02-16T12:59:15;14.00;99.90
64685;DHT22;51109;47.414;18.954;2024-02-16T13:01:41;14.10;99.90
64685;DHT22;51109;47.414;18.954;2024-02-16T13:04:08;13.90;99.90
64685;DHT22;51109;47.414;18.954;2024-02-16T13:06:34;13.80;99.90
64685;DHT22;51109;47.414;18.954;2024-02-16T13:09:00;14.10;99.90
64685;DHT22;51109;47.414;18.954;2024-02-16T13:11:26;13.70;99.90
64685;DHT22;51109;47.414;18.954;2024-02-16T13:13:52;13.50;99.90
64685;DHT22;51109;47.414;18.954;2024-02-16T13:16:18;13.50;99.90
64685;DHT22;51109;47.414;18.954;2024-02-16T13:18:44;13.40;99.90
64685;DHT22;51109;47.414;18.954;2024-02-16T13:21:10;13.20;99.90
64685;DHT22;51109;47.414;18.954;2024-02-16T13:23:36;13.40;99.90
64685;DHT22;51109;47.414;18.954;2024-02-16T13:26:02;13.50;99.90
64685;DHT22;51109;47.414;18.954;2024-02-16T13:28:28;13.50;99.90
64685;DHT22;51109;47.414;18.954;2024-02-16T13:30:54;13.40;99.90
64685;DHT22;51109;47.414;18.954;2024-02-16T13:33:19;13.60;99.90
64685;DHT22;51109;47.414;18.954;2024-02-16T13:35:45;13.40;99.90
64685;DHT22;51109;47.414;18.954;2024-02-16T13:38:11;13.40;99.90
64685;DHT22;51109;47.414;18.954;2024-02-16T13:40:37;13.50;99.90
64685;DHT22;51109;47.414;18.954;2024-02-16T13:43:03;13.60;99.90
64685;DHT22;51109;47.414;18.954;2024-02-16T13:45:54;13.50;99.90
64685;DHT22;51109;47.414;18.954;2024-02-16T13:48:20;13.40;99.90
64685;DHT22;51109;47.414;18.954;2024-02-16T13:50:50;13.50;99.90
64685;DHT22;51109;47.414;18.954;2024-02-16T13:53:16;13.50;99.90
64685;DHT22;51109;47.414;18.954;2024-02-16T13:55:43;13.50;99.90
64685;DHT22;51109;47.414;18.954;2024-02-16T13:58:12;13.40;99.90
64685;DHT22;51109;47.414;18.954;2024-02-16T14:00:38;13.40;99.90
64685;DHT22;51109;47.414;18.954;2024-02-16T14:03:09;13.30;99.90
64685;DHT22;51109;47.414;18.954;2024-02-16T14:05:38;13.30;99.90
64685;DHT22;51109;47.414;18.954;2024-02-16T14:08:05;13.10;99.90
64685;DHT22;51109;47.414;18.954;2024-02-16T14:10:31;13.00;99.90
64685;DHT22;51109;47.414;18.954;2024-02-16T14:12:58;13.20;99.90
64685;DHT22;51109;47.414;18.954;2024-02-16T14:15:24;13.10;99.90
64685;DHT22;51109;47.414;18.954;2024-02-16T14:17:50;13.50;99.90
64685;DHT22;51109;47.414;18.954;2024-02-16T14:20:15;13.20;99.90
64685;DHT22;51109;47.414;18.954;2024-02-16T14:22:41;13.00;99.90
64685;DHT22;51109;47.414;18.954;2024-02-16T14:25:07;13.00;99.90
64685;DHT22;51109;47.414;18.954;2024-02-16T14:27:36;13.10;99.90
64685;DHT22;51109;47.414;18.954;2024-02-16T14:30:05;12.90;99.90
64685;DHT22;51109;47.414;18.954;2024-02-16T14:32:31;12.70;99.90
64685;DHT22;51109;47.414;18.954;2024-02-16T14:34:57;12.70;99.90
64685;DHT22;51109;47.414;18.954;2024-02-16T14:37:22;12.80;99.90
64685;DHT22;51109;47.414;18.954;2024-02-16T14:39:48;12.80;99.90
64685;DHT22;51109;47.414;18.954;2024-02-16T14:42:14;12.90;99.90
64685;DHT22;51109;47.414;18.954;2024-02-16T14:44:40;12.80;99.90
64685;DHT22;51109;47.414;18.954;2024-02-16T14:47:06;12.60;99.90
64685;DHT22;51109;47.414;18.954;2024-02-16T14:49:31;12.60;99.90
64685;DHT22;51109;47.414;18.954;2024-02-16T14:51:57;12.60;99.90
64685;DHT22;51109;47.414;18.954;2024-02-16T14:54:23;12.70;99.90
64685;DHT22;51109;47.414;18.954;2024-02-16T14:56:52;12.70;99.90
64685;DHT22;51109;47.414;18.954;2024-02-16T14:59:18;12.60;99.90
64685;DHT22;51109;47.414;18.954;2024-02-16T15:01:44;12.60;99.90
64685;DHT22;51109;47.414;18.954;2024-02-16T15:04:11;12.50;99.90
64685;DHT22;51109;47.414;18.954;2024-02-16T15:06:36;12.60;99.90
64685;DHT22;51109;47.414;18.954;2024-02-16T15:09:02;12.50;99.90
64685;DHT22;51109;47.414;18.954;2024-02-16T15:11:31;12.50;99.90
64685;DHT22;51109;47.414;18.954;2024-02-16T15:13:57;12.40;99.90
64685;DHT22;51109;47.414;18.954;2024-02-16T15:16:23;12.40;99.90
64685;DHT22;51109;47.414;18.954;2024-02-16T15:18:48;12.40;99.90
64685;DHT22;51109;47.414;18.954;2024-02-16T15:21:14;12.30;99.90
64685;DHT22;51109;47.414;18.954;2024-02-16T15:23:40;12.30;99.90
64685;DHT22;51109;47.414;18.954;2024-02-16T15:26:09;12.20;99.90
64685;DHT22;51109;47.414;18.954;2024-02-16T15:28:34;12.10;99.90